Site contains unofficial IBTrACS data. Visit the IBTrACS Website to access archived data.

1861 NOT_NAMED (1861355S11068)


IBTrACS version v04r00. Visit IBTrACS website for data access.
Please direct all questions to the IBTrACS Q and A forum

Storm track - Intensity - Wind Radii - Intensity Data - Source Data - All data

Summary Information

Storm ID 1861355S11068
Start Dec 20 18Z
End Dec 31 06Z
ATCF IDs
Track status Best track data.

Storm track plot

Map of storm track

Intensity plots

No Intensity information for this storm


Radial wind information

No radial wind information for this storm


Position and Intensity Table

BASIN ISO_TIME_________ NATURE LAT LON
degrees north degrees east
SI 1861-12-20 18:00:00 NR -11.00 68.30
SI 21:00:00 NR -11.13 68.16
SI 1861-12-21 00:00:00 NR -11.25 68.02
SI 03:00:00 NR -11.38 67.87
SI 06:00:00 NR -11.36 67.86
SI 09:00:00 NR -11.37 67.81
SI 12:00:00 NR -11.41 67.75
SI 15:00:00 NR -11.45 67.67
SI 18:00:00 NR -11.56 67.54
SI 21:00:00 NR -11.68 67.42
SI 1861-12-22 00:00:00 NR -11.80 67.31
SI 03:00:00 NR -11.93 67.21
SI 06:00:00 NR -12.05 67.10
SI 09:00:00 NR -12.17 66.98
SI 12:00:00 NR -12.29 66.86
SI 15:00:00 NR -12.41 66.74
SI 18:00:00 NR -12.54 66.62
SI 21:00:00 NR -12.67 66.50
SI 1861-12-23 00:00:00 NR -12.82 66.37
SI 03:00:00 NR -12.96 66.26
SI 06:00:00 NR -13.10 66.15
SI 09:00:00 NR -13.24 66.05
SI 12:00:00 NR -13.37 65.97
SI 15:00:00 NR -13.50 65.89
SI 18:00:00 NR -13.63 65.82
SI 21:00:00 NR -13.75 65.75
SI 1861-12-24 00:00:00 NR -13.87 65.70
SI 03:00:00 NR -13.99 65.65
SI 06:00:00 NR -14.10 65.60
SI 09:00:00 NR -14.21 65.56
SI 12:00:00 NR -14.32 65.52
SI 15:00:00 NR -14.42 65.48
SI 18:00:00 NR -14.53 65.45
SI 21:00:00 NR -14.64 65.42
SI 1861-12-25 00:00:00 NR -14.74 65.39
SI 03:00:00 NR -14.86 65.37
SI 06:00:00 NR -15.00 65.35
SI 09:00:00 NR -15.16 65.32
SI 12:00:00 NR -15.33 65.30
SI 15:00:00 NR -15.51 65.29
SI 18:00:00 NR -15.69 65.28
SI 21:00:00 NR -15.85 65.29
SI 1861-12-26 00:00:00 NR -16.02 65.30
SI 03:00:00 NR -16.18 65.32
SI 06:00:00 NR -16.35 65.35
SI 09:00:00 NR -16.54 65.38
SI 12:00:00 NR -16.74 65.41
SI 15:00:00 NR -16.94 65.44
SI 18:00:00 NR -17.14 65.48
SI 21:00:00 NR -17.31 65.51
SI 1861-12-27 00:00:00 NR -17.48 65.54
SI 03:00:00 NR -17.66 65.59
SI 06:00:00 NR -17.85 65.65
SI 09:00:00 NR -18.07 65.72
SI 12:00:00 NR -18.31 65.81
SI 15:00:00 NR -18.55 65.91
SI 18:00:00 NR -18.78 66.01
SI 21:00:00 NR -18.97 66.10
SI 1861-12-28 00:00:00 NR -19.14 66.20
SI 03:00:00 NR -19.33 66.31
SI 06:00:00 NR -19.55 66.45
SI 09:00:00 NR -19.84 66.63
SI 12:00:00 NR -20.17 66.84
SI 15:00:00 NR -20.50 67.07
SI 18:00:00 NR -20.84 67.29
SI 21:00:00 NR -21.16 67.50
SI 1861-12-29 00:00:00 NR -21.25 67.55
SI 03:00:00 NR -21.26 67.53
SI 06:00:00 NR -21.18 67.44
SI 09:00:00 NR -20.95 67.22
SI 12:00:00 NR -21.31 67.47
SI 15:00:00 NR -21.69 67.72
SI 18:00:00 NR -22.06 67.99
SI 21:00:00 NR -22.43 68.25
SI 1861-12-30 00:00:00 NR -22.78 68.52
SI 03:00:00 NR -23.10 68.77
SI 06:00:00 NR -23.40 69.00
SI 09:00:00 NR -23.66 69.21
SI 12:00:00 NR -23.88 69.41
SI 15:00:00 NR -24.08 69.58
SI 18:00:00 NR -24.25 69.74
SI 21:00:00 NR -24.41 69.89
SI 1861-12-31 00:00:00 NR -24.55 70.03
SI 03:00:00 NR -24.68 70.17
SI 06:00:00 NR -24.80 70.30

Source Information

Agency Information
USA
TOKYO
CMA
HKO
NEWDELHI
REUNION WMO-Best-Tracks.txt:Line=402:xxxx861058
BOM
NADI
WELLINGTON
DS824
TD9636 cons_worldwide_trop_cyclone_18710101-19891231-005:Line=545
TD9635
NEUMANN
MLC

All available IBTrACS Data

SEASON BASIN SUBBASIN ISO_TIME_________ NATURE LAT LON WMO AGENCY DIST2LAND LANDFALL IFLAG USA SSHS REUNION LAT REUNION LON REUNION TYPE REUNION TNUM TD9636 LAT TD9636 LON TD9636 STAGE STORM SPEED STORM DIR
Year degrees north degrees east km km 1 degrees north degrees east 1 degrees north degrees east kts degrees
1862 SI MM 1861-12-20 18:00:00 NR -11.00 68.30 1524 1508 __________O___ -1 -11.00 68.30 7 4 227
1862 SI MM 21:00:00 NR -11.13 68.16 1508 1485 __________P___ -1 -11.13 68.16 7 4 228
1862 SI MM 1861-12-21 00:00:00 NR -11.25 68.02 1477 1462 __________P___ -1 -11.25 68.02 7 4 229
1862 SI MM 03:00:00 NR -11.38 67.87 1462 1462 __________P___ -1 -11.38 67.87 7 2 235
1862 SI MM 06:00:00 NR -11.36 67.86 reunion 1462 1454 _____O____O___ -1 -10.80 68.50 99 9.90 -11.50 67.70 7 1 274
1862 SI MM 09:00:00 NR -11.37 67.81 1454 1446 _____P____P___ -1 -10.88 68.40 99 -11.62 67.52 7 1 247
1862 SI MM 12:00:00 NR -11.41 67.75 1446 1446 _____P____P___ -1 -10.96 68.29 99 -11.74 67.33 7 2 240
1862 SI MM 15:00:00 NR -11.45 67.67 1438 1414 _____P____P___ -1 -11.04 68.19 99 -11.87 67.16 7 3 232
1862 SI MM 18:00:00 NR -11.56 67.54 1414 1399 _____P____O___ -1 -11.12 68.08 99 -12.00 67.00 7 3 227
1862 SI MM 21:00:00 NR -11.68 67.42 1399 1383 _____P____P___ -1 -11.21 67.97 99 -12.15 66.88 7 3 223
1862 SI MM 1861-12-22 00:00:00 NR -11.80 67.31 1383 1368 _____P____P___ -1 -11.30 67.85 99 -12.30 66.78 7 3 220
1862 SI MM 03:00:00 NR -11.93 67.21 1368 1352 _____P____P___ -1 -11.40 67.73 99 -12.45 66.69 7 3 220
1862 SI MM 06:00:00 NR -12.05 67.10 reunion 1352 1329 _____O____O___ -1 -11.50 67.60 99 9.90 -12.60 66.60 7 3 222
1862 SI MM 09:00:00 NR -12.17 66.98 1329 1313 _____P____P___ -1 -11.61 67.47 99 -12.73 66.50 7 3 224
1862 SI MM 12:00:00 NR -12.29 66.86 1313 1290 _____P____P___ -1 -11.72 67.33 99 -12.85 66.40 7 3 224
1862 SI MM 15:00:00 NR -12.41 66.74 1290 1274 _____P____P___ -1 -11.85 67.19 99 -12.97 66.30 7 3 224
1862 SI MM 18:00:00 NR -12.54 66.62 1274 1251 _____P____O___ -1 -11.97 67.04 99 -13.10 66.20 7 4 222
1862 SI MM 21:00:00 NR -12.67 66.50 1251 1235 _____P____P___ -1 -12.10 66.90 99 -13.25 66.09 7 4 221
1862 SI MM 1861-12-23 00:00:00 NR -12.82 66.37 1235 1212 _____P____P___ -1 -12.23 66.76 99 -13.40 65.99 7 4 219
1862 SI MM 03:00:00 NR -12.96 66.26 1212 1197 _____P____P___ -1 -12.36 66.63 99 -13.55 65.89 7 4 217
1862 SI MM 06:00:00 NR -13.10 66.15 reunion 1197 1181 _____O____O___ -1 -12.50 66.50 99 9.90 -13.70 65.80 7 3 215
1862 SI MM 09:00:00 NR -13.24 66.05 1181 1158 _____P____P___ -1 -12.64 66.38 99 -13.84 65.73 7 3 213
1862 SI MM 12:00:00 NR -13.37 65.97 1158 1143 _____P____P___ -1 -12.78 66.26 99 -13.96 65.68 7 3 211
1862 SI MM 15:00:00 NR -13.50 65.89 1143 1127 _____P____P___ -1 -12.92 66.15 99 -14.09 65.63 7 3 209
1862 SI MM 18:00:00 NR -13.63 65.82 1127 1120 _____P____O___ -1 -13.06 66.04 99 -14.20 65.60 7 3 207
1862 SI MM 21:00:00 NR -13.75 65.75 1112 1097 _____P____P___ -1 -13.20 65.94 99 -14.31 65.57 7 3 207
1862 SI MM 1861-12-24 00:00:00 NR -13.87 65.70 1097 1081 _____P____P___ -1 -13.34 65.85 99 -14.41 65.54 7 3 204
1862 SI MM 03:00:00 NR -13.99 65.65 1081 1074 _____P____P___ -1 -13.47 65.77 99 -14.50 65.52 7 2 202
1862 SI MM 06:00:00 NR -14.10 65.60 reunion 1074 1067 _____O____O___ -1 -13.60 65.70 99 9.90 -14.60 65.50 7 2 201
1862 SI MM 09:00:00 NR -14.21 65.56 1067 1052 _____P____P___ -1 -13.72 65.64 99 -14.70 65.47 7 2 201
1862 SI MM 12:00:00 NR -14.32 65.52 1052 1045 _____P____P___ -1 -13.84 65.58 99 -14.79 65.45 7 2 197
1862 SI MM 15:00:00 NR -14.42 65.48 1045 1038 _____P____P___ -1 -13.95 65.54 99 -14.89 65.42 7 2 198
1862 SI MM 18:00:00 NR -14.53 65.45 1038 1022 _____P____O___ -1 -14.06 65.50 99 -15.00 65.40 7 2 195
1862 SI MM 21:00:00 NR -14.64 65.42 1022 1015 _____P____P___ -1 -14.17 65.47 99 -15.10 65.37 7 2 196
1862 SI MM 1861-12-25 00:00:00 NR -14.74 65.39 1015 1002 _____P____P___ -1 -14.28 65.45 99 -15.21 65.34 7 2 194
1862 SI MM 03:00:00 NR -14.86 65.37 1002 995 _____P____P___ -1 -14.39 65.42 99 -15.34 65.32 7 3 189
1862 SI MM 06:00:00 NR -15.00 65.35 reunion 995 980 _____O____O___ -1 -14.50 65.40 99 9.90 -15.50 65.30 7 3 188
1862 SI MM 09:00:00 NR -15.16 65.32 974 967 _____P____P___ -1 -14.60 65.36 99 -15.72 65.28 7 3 187
1862 SI MM 12:00:00 NR -15.33 65.30 967 954 _____P____P___ -1 -14.69 65.33 99 -15.98 65.28 7 4 185
1862 SI MM 15:00:00 NR -15.51 65.29 954 942 _____P____P___ -1 -14.78 65.29 99 -16.24 65.28 7 4 0
1862 SI MM 18:00:00 NR -15.69 65.28 942 936 _____P____O___ -1 -14.88 65.26 99 -16.50 65.30 7 3 0
1862 SI MM 21:00:00 NR -15.85 65.29 930 925 _____P____P___ -1 -14.99 65.24 99 -16.72 65.34 7 3 175
1862 SI MM 1861-12-26 00:00:00 NR -16.02 65.30 925 913 _____P____P___ -1 -15.11 65.22 99 -16.92 65.38 7 3 173
1862 SI MM 03:00:00 NR -16.18 65.32 913 908 _____P____P___ -1 -15.25 65.20 99 -17.12 65.44 7 3 174
1862 SI MM 06:00:00 NR -16.35 65.35 reunion 917 907 _____O____O___ -1 -15.40 65.20 99 9.90 -17.30 65.50 7 4 171
1862 SI MM 09:00:00 NR -16.54 65.38 907 896 _____P____P___ -1 -15.59 65.20 99 -17.49 65.55 7 4 171
1862 SI MM 12:00:00 NR -16.74 65.41 896 886 _____P____P___ -1 -15.81 65.21 99 -17.67 65.60 7 4 171
1862 SI MM 15:00:00 NR -16.94 65.44 886 881 _____P____P___ -1 -16.04 65.23 99 -17.84 65.65 7 4 170
1862 SI MM 18:00:00 NR -17.14 65.48 886 877 _____P____O___ -1 -16.28 65.25 99 -18.00 65.70 7 4 170
1862 SI MM 21:00:00 NR -17.31 65.51 877 868 _____P____P___ -1 -16.52 65.28 99 -18.11 65.73 7 4 168
1862 SI MM 1861-12-27 00:00:00 NR -17.48 65.54 868 868 _____P____P___ -1 -16.76 65.32 99 -18.20 65.77 7 4 167
1862 SI MM 03:00:00 NR -17.66 65.59 870 866 _____P____P___ -1 -16.99 65.36 99 -18.33 65.82 7 4 165
1862 SI MM 06:00:00 NR -17.85 65.65 reunion 876 865 _____O____O___ -1 -17.20 65.40 99 9.90 -18.50 65.90 7 4 164
1862 SI MM 09:00:00 NR -18.07 65.72 865 865 _____P____P___ -1 -17.36 65.43 99 -18.78 66.02 7 5 162
1862 SI MM 12:00:00 NR -18.31 65.81 868 865 _____P____P___ -1 -17.50 65.45 99 -19.12 66.17 7 5 160
1862 SI MM 15:00:00 NR -18.55 65.91 870 870 _____P____P___ -1 -17.64 65.49 99 -19.47 66.33 7 5 158
1862 SI MM 18:00:00 NR -18.78 66.01 875 872 _____P____O___ -1 -17.77 65.53 99 -19.80 66.50 7 5 156
1862 SI MM 21:00:00 NR -18.97 66.10 881 879 _____P____P___ -1 -17.91 65.58 99 -20.03 66.63 7 4 154
1862 SI MM 1861-12-28 00:00:00 NR -19.14 66.20 889 887 _____P____P___ -1 -18.05 65.64 99 -20.23 66.76 7 4 151
1862 SI MM 03:00:00 NR -19.33 66.31 896 894 _____P____P___ -1 -18.21 65.71 99 -20.44 66.91 7 5 149
1862 SI MM 06:00:00 NR -19.55 66.45 reunion 913 903 _____O____O___ -1 -18.40 65.80 99 9.90 -20.70 67.10 7 6 149
1862 SI MM 09:00:00 NR -19.84 66.63 920 919 _____P____P___ -1 -18.62 65.90 99 -21.07 67.37 7 7 149
1862 SI MM 12:00:00 NR -20.17 66.84 938 938 _____P____P___ -1 -18.85 66.01 99 -21.48 67.68 7 8 148
1862 SI MM 15:00:00 NR -20.50 67.07 969 969 _____P____P___ -1 -19.11 66.14 99 -21.90 68.00 7 8 148
1862 SI MM 18:00:00 NR -20.84 67.29 990 990 _____P____O___ -1 -19.38 66.28 99 -22.30 68.30 7 8 148
1862 SI MM 21:00:00 NR -21.16 67.50 1013 1013 _____P____P___ -1 -19.67 66.44 99 -22.65 68.56 7 5 150
1862 SI MM 1861-12-29 00:00:00 NR -21.25 67.55 1013 1013 _____P____P___ -1 -19.97 66.61 99 -22.96 68.80 7 1 161
1862 SI MM 03:00:00 NR -21.26 67.53 1014 1002 _____P____P___ -1 -20.28 66.80 99 -23.24 69.00 7 1 305
1862 SI MM 06:00:00 NR -21.18 67.44 reunion 1002 980 _____O____O___ -1 -20.60 67.00 99 9.90 -23.50 69.20 7 4 318
1862 SI MM 09:00:00 NR -20.95 67.22 980 980 _____P________ -1 -20.95 67.22 99 7 1 169
1862 SI MM 12:00:00 NR -21.31 67.47 1014 1014 _____P________ -1 -21.31 67.47 99 7 9 148
1862 SI MM 15:00:00 NR -21.69 67.72 1039 1039 _____P________ -1 -21.69 67.72 99 7 9 147
1862 SI MM 18:00:00 NR -22.06 67.99 1075 1075 _____P________ -1 -22.06 67.99 99 9 146
1862 SI MM 21:00:00 NR -22.43 68.25 1111 1111 _____P________ -1 -22.43 68.25 99 9 146
1862 SI MM 1861-12-30 00:00:00 NR -22.78 68.52 1140 1140 _____P________ -1 -22.78 68.52 99 8 145
1862 SI MM 03:00:00 NR -23.10 68.77 1178 1178 _____P________ -1 -23.10 68.77 99 8 144
1862 SI MM 06:00:00 NR -23.40 69.00 reunion 1205 1205 _____O________ -1 -23.40 69.00 99 9.90 7 143
1862 SI MM 09:00:00 NR -23.66 69.21 1234 1234 _____P________ -1 -23.66 69.21 99 6 143
1862 SI MM 12:00:00 NR -23.88 69.41 1260 1260 _____P________ -1 -23.88 69.41 99 5 141
1862 SI MM 15:00:00 NR -24.08 69.58 1285 1285 _____P________ -1 -24.08 69.58 99 5 140
1862 SI MM 18:00:00 NR -24.25 69.74 1302 1302 _____P________ -1 -24.25 69.74 99 4 139
1862 SI MM 21:00:00 NR -24.41 69.89 1325 1325 _____P________ -1 -24.41 69.89 99 4 138
1862 SI MM 1861-12-31 00:00:00 NR -24.55 70.03 1338 1338 _____P________ -1 -24.55 70.03 99 4 137
1862 SI MM 03:00:00 NR -24.68 70.17 1364 1364 _____P________ -1 -24.68 70.17 99 4 136
1862 SI MM 06:00:00 NR -24.80 70.30 reunion 1377 _____O________ -1 -24.80 70.30 99 9.90 3 136